sensor_id;sensor_type;location;lat;lon;timestamp;P1;durP1;ratioP1;P2;durP2;ratioP2
71667;SDS011;59504;54.806;9.640;2022-11-20T00:00:24;3.25;;;1.75;;
71667;SDS011;59504;54.806;9.640;2022-11-20T00:02:43;4.60;;;1.30;;
71667;SDS011;59504;54.806;9.640;2022-11-20T00:05:02;4.03;;;1.85;;
71667;SDS011;59504;54.806;9.640;2022-11-20T00:07:22;4.95;;;1.52;;
71667;SDS011;59504;54.806;9.640;2022-11-20T00:09:41;6.47;;;1.92;;
71667;SDS011;59504;54.806;9.640;2022-11-20T00:12:00;4.00;;;1.55;;
71667;SDS011;59504;54.806;9.640;2022-11-20T00:14:19;4.85;;;1.58;;
71667;SDS011;59504;54.806;9.640;2022-11-20T00:16:38;3.15;;;1.45;;
71667;SDS011;59504;54.806;9.640;2022-11-20T00:18:57;5.95;;;1.55;;
71667;SDS011;59504;54.806;9.640;2022-11-20T00:23:43;7.10;;;1.88;;
71667;SDS011;59504;54.806;9.640;2022-11-20T00:26:03;5.65;;;1.60;;
71667;SDS011;59504;54.806;9.640;2022-11-20T00:28:23;4.65;;;1.70;;
71667;SDS011;59504;54.806;9.640;2022-11-20T00:30:42;4.25;;;1.90;;
71667;SDS011;59504;54.806;9.640;2022-11-20T00:33:01;3.28;;;1.70;;
71667;SDS011;59504;54.806;9.640;2022-11-20T00:35:21;3.60;;;2.13;;
71667;SDS011;59504;54.806;9.640;2022-11-20T00:37:40;5.70;;;1.52;;
71667;SDS011;59504;54.806;9.640;2022-11-20T00:39:59;4.47;;;1.30;;
71667;SDS011;59504;54.806;9.640;2022-11-20T00:42:18;4.85;;;1.50;;
71667;SDS011;59504;54.806;9.640;2022-11-20T00:44:37;4.22;;;1.48;;
71667;SDS011;59504;54.806;9.640;2022-11-20T00:46:56;4.43;;;1.73;;
71667;SDS011;59504;54.806;9.640;2022-11-20T00:49:15;4.90;;;1.67;;
71667;SDS011;59504;54.806;9.640;2022-11-20T00:51:35;3.10;;;1.50;;
71667;SDS011;59504;54.806;9.640;2022-11-20T00:53:55;5.32;;;1.40;;
71667;SDS011;59504;54.806;9.640;2022-11-20T00:56:16;7.25;;;1.52;;
71667;SDS011;59504;54.806;9.640;2022-11-20T00:58:37;4.32;;;1.30;;
71667;SDS011;59504;54.806;9.640;2022-11-20T01:01:02;2.50;;;1.30;;
71667;SDS011;59504;54.806;9.640;2022-11-20T01:03:23;6.18;;;1.33;;
71667;SDS011;59504;54.806;9.640;2022-11-20T01:05:42;3.38;;;1.30;;
71667;SDS011;59504;54.806;9.640;2022-11-20T01:08:02;4.15;;;1.48;;
71667;SDS011;59504;54.806;9.640;2022-11-20T01:10:21;9.35;;;1.70;;
71667;SDS011;59504;54.806;9.640;2022-11-20T01:12:40;3.85;;;1.60;;
71667;SDS011;59504;54.806;9.640;2022-11-20T01:14:59;2.45;;;1.40;;
71667;SDS011;59504;54.806;9.640;2022-11-20T01:17:18;5.35;;;1.30;;
71667;SDS011;59504;54.806;9.640;2022-11-20T01:19:37;4.68;;;1.40;;
71667;SDS011;59504;54.806;9.640;2022-11-20T01:21:57;3.05;;;1.42;;
71667;SDS011;59504;54.806;9.640;2022-11-20T01:24:17;3.55;;;1.50;;
71667;SDS011;59504;54.806;9.640;2022-11-20T01:26:37;4.15;;;1.30;;
71667;SDS011;59504;54.806;9.640;2022-11-20T01:28:58;3.65;;;1.40;;
71667;SDS011;59504;54.806;9.640;2022-11-20T01:31:22;3.47;;;1.50;;
71667;SDS011;59504;54.806;9.640;2022-11-20T01:33:44;3.60;;;1.48;;
71667;SDS011;59504;54.806;9.640;2022-11-20T01:36:05;2.08;;;1.27;;
71667;SDS011;59504;54.806;9.640;2022-11-20T01:38:25;6.60;;;1.58;;
71667;SDS011;59504;54.806;9.640;2022-11-20T01:40:44;3.22;;;1.40;;
71667;SDS011;59504;54.806;9.640;2022-11-20T01:43:12;2.53;;;1.05;;
71667;SDS011;59504;54.806;9.640;2022-11-20T01:46:22;2.60;;;1.50;;
71667;SDS011;59504;54.806;9.640;2022-11-20T01:48:25;3.33;;;1.50;;
71667;SDS011;59504;54.806;9.640;2022-11-20T01:50:52;2.83;;;1.10;;
71667;SDS011;59504;54.806;9.640;2022-11-20T01:53:13;2.03;;;1.15;;
71667;SDS011;59504;54.806;9.640;2022-11-20T01:55:36;2.60;;;1.25;;
71667;SDS011;59504;54.806;9.640;2022-11-20T01:58:00;4.82;;;1.25;;
71667;SDS011;59504;54.806;9.640;2022-11-20T02:00:21;0.95;;;0.85;;
71667;SDS011;59504;54.806;9.640;2022-11-20T02:02:41;3.30;;;1.30;;
71667;SDS011;59504;54.806;9.640;2022-11-20T02:05:07;1.65;;;0.80;;
71667;SDS011;59504;54.806;9.640;2022-11-20T02:08:00;2.08;;;1.13;;
71667;SDS011;59504;54.806;9.640;2022-11-20T02:10:21;5.20;;;1.20;;
71667;SDS011;59504;54.806;9.640;2022-11-20T02:12:45;2.30;;;1.20;;
71667;SDS011;59504;54.806;9.640;2022-11-20T02:15:23;1.05;;;0.63;;
71667;SDS011;59504;54.806;9.640;2022-11-20T02:17:42;1.17;;;0.75;;
71667;SDS011;59504;54.806;9.640;2022-11-20T02:20:02;1.70;;;0.93;;
71667;SDS011;59504;54.806;9.640;2022-11-20T02:22:27;0.93;;;0.50;;
71667;SDS011;59504;54.806;9.640;2022-11-20T02:24:49;0.45;;;0.40;;
71667;SDS011;59504;54.806;9.640;2022-11-20T02:26:53;0.73;;;0.40;;
71667;SDS011;59504;54.806;9.640;2022-11-20T02:28:58;1.58;;;0.60;;
71667;SDS011;59504;54.806;9.640;2022-11-20T02:31:00;1.95;;;0.50;;
71667;SDS011;59504;54.806;9.640;2022-11-20T02:33:01;0.63;;;0.50;;
71667;SDS011;59504;54.806;9.640;2022-11-20T02:37:18;0.22;;;0.20;;
71667;SDS011;59504;54.806;9.640;2022-11-20T02:39:20;1.27;;;0.40;;
71667;SDS011;59504;54.806;9.640;2022-11-20T02:41:31;1.15;;;0.40;;
71667;SDS011;59504;54.806;9.640;2022-11-20T02:43:33;1.27;;;0.70;;
71667;SDS011;59504;54.806;9.640;2022-11-20T02:45:34;1.73;;;0.90;;
71667;SDS011;59504;54.806;9.640;2022-11-20T02:47:35;3.00;;;0.70;;
71667;SDS011;59504;54.806;9.640;2022-11-20T02:49:35;1.02;;;0.75;;
71667;SDS011;59504;54.806;9.640;2022-11-20T02:51:36;2.67;;;0.75;;
71667;SDS011;59504;54.806;9.640;2022-11-20T02:53:36;1.35;;;0.90;;
71667;SDS011;59504;54.806;9.640;2022-11-20T02:55:37;3.70;;;0.85;;
71667;SDS011;59504;54.806;9.640;2022-11-20T02:57:38;1.15;;;0.80;;
71667;SDS011;59504;54.806;9.640;2022-11-20T02:59:39;1.70;;;0.90;;
71667;SDS011;59504;54.806;9.640;2022-11-20T03:01:39;2.38;;;0.80;;
71667;SDS011;59504;54.806;9.640;2022-11-20T03:03:40;2.22;;;1.13;;
71667;SDS011;59504;54.806;9.640;2022-11-20T03:05:41;1.67;;;0.93;;
71667;SDS011;59504;54.806;9.640;2022-11-20T03:07:43;1.50;;;0.80;;
71667;SDS011;59504;54.806;9.640;2022-11-20T03:09:44;3.08;;;0.90;;
71667;SDS011;59504;54.806;9.640;2022-11-20T03:12:05;2.17;;;1.02;;
71667;SDS011;59504;54.806;9.640;2022-11-20T03:14:06;1.80;;;0.98;;
71667;SDS011;59504;54.806;9.640;2022-11-20T03:16:27;3.75;;;1.42;;
71667;SDS011;59504;54.806;9.640;2022-11-20T03:18:47;2.42;;;1.52;;
71667;SDS011;59504;54.806;9.640;2022-11-20T03:21:09;3.22;;;1.92;;
71667;SDS011;59504;54.806;9.640;2022-11-20T03:23:31;4.15;;;2.20;;
71667;SDS011;59504;54.806;9.640;2022-11-20T03:25:53;3.58;;;1.90;;
71667;SDS011;59504;54.806;9.640;2022-11-20T03:28:13;2.92;;;1.67;;
71667;SDS011;59504;54.806;9.640;2022-11-20T03:30:34;3.75;;;1.45;;
71667;SDS011;59504;54.806;9.640;2022-11-20T03:32:36;4.07;;;1.88;;
71667;SDS011;59504;54.806;9.640;2022-11-20T03:34:57;2.50;;;1.38;;
71667;SDS011;59504;54.806;9.640;2022-11-20T03:37:18;3.35;;;1.60;;
71667;SDS011;59504;54.806;9.640;2022-11-20T03:39:38;1.50;;;1.15;;
71667;SDS011;59504;54.806;9.640;2022-11-20T03:41:48;1.85;;;1.08;;
71667;SDS011;59504;54.806;9.640;2022-11-20T03:44:10;1.73;;;1.10;;
71667;SDS011;59504;54.806;9.640;2022-11-20T03:46:31;1.33;;;0.90;;
71667;SDS011;59504;54.806;9.640;2022-11-20T03:48:52;2.72;;;0.93;;
71667;SDS011;59504;54.806;9.640;2022-11-20T03:51:14;2.08;;;0.70;;
71667;SDS011;59504;54.806;9.640;2022-11-20T03:53:36;1.67;;;0.60;;
71667;SDS011;59504;54.806;9.640;2022-11-20T03:55:57;0.88;;;0.68;;
71667;SDS011;59504;54.806;9.640;2022-11-20T03:58:18;1.38;;;0.63;;
71667;SDS011;59504;54.806;9.640;2022-11-20T04:00:39;1.02;;;0.50;;
71667;SDS011;59504;54.806;9.640;2022-11-20T04:02:59;1.08;;;0.60;;
71667;SDS011;59504;54.806;9.640;2022-11-20T04:05:20;0.68;;;0.50;;
71667;SDS011;59504;54.806;9.640;2022-11-20T04:07:41;0.88;;;0.57;;
71667;SDS011;59504;54.806;9.640;2022-11-20T04:10:02;1.05;;;0.70;;
71667;SDS011;59504;54.806;9.640;2022-11-20T04:12:22;1.00;;;0.60;;
71667;SDS011;59504;54.806;9.640;2022-11-20T04:14:43;2.25;;;0.98;;
71667;SDS011;59504;54.806;9.640;2022-11-20T04:17:03;1.85;;;1.00;;
71667;SDS011;59504;54.806;9.640;2022-11-20T04:19:24;1.88;;;0.80;;
71667;SDS011;59504;54.806;9.640;2022-11-20T04:21:45;1.65;;;0.88;;
71667;SDS011;59504;54.806;9.640;2022-11-20T04:24:06;1.23;;;0.98;;
71667;SDS011;59504;54.806;9.640;2022-11-20T04:26:27;1.60;;;0.70;;
71667;SDS011;59504;54.806;9.640;2022-11-20T04:28:49;2.47;;;1.13;;
71667;SDS011;59504;54.806;9.640;2022-11-20T04:31:14;1.73;;;0.90;;
71667;SDS011;59504;54.806;9.640;2022-11-20T04:33:36;1.27;;;0.80;;
71667;SDS011;59504;54.806;9.640;2022-11-20T04:36:02;0.95;;;0.70;;
71667;SDS011;59504;54.806;9.640;2022-11-20T04:38:33;2.55;;;1.15;;
71667;SDS011;59504;54.806;9.640;2022-11-20T04:41:00;1.10;;;0.90;;
71667;SDS011;59504;54.806;9.640;2022-11-20T04:43:23;3.15;;;0.88;;
71667;SDS011;59504;54.806;9.640;2022-11-20T04:45:49;1.95;;;0.90;;
71667;SDS011;59504;54.806;9.640;2022-11-20T04:48:11;1.85;;;0.75;;
71667;SDS011;59504;54.806;9.640;2022-11-20T04:50:32;1.27;;;0.82;;
71667;SDS011;59504;54.806;9.640;2022-11-20T04:52:52;1.58;;;0.90;;
71667;SDS011;59504;54.806;9.640;2022-11-20T04:55:13;1.48;;;1.00;;
71667;SDS011;59504;54.806;9.640;2022-11-20T04:57:34;1.58;;;0.80;;
71667;SDS011;59504;54.806;9.640;2022-11-20T04:59:54;1.80;;;0.98;;
71667;SDS011;59504;54.806;9.640;2022-11-20T05:02:15;1.27;;;0.70;;
71667;SDS011;59504;54.806;9.640;2022-11-20T05:04:35;2.85;;;1.08;;
71667;SDS011;59504;54.806;9.640;2022-11-20T05:06:56;1.83;;;0.85;;
71667;SDS011;59504;54.806;9.640;2022-11-20T05:09:17;1.35;;;0.70;;
71667;SDS011;59504;54.806;9.640;2022-11-20T05:11:37;1.48;;;0.63;;
71667;SDS011;59504;54.806;9.640;2022-11-20T05:13:58;0.90;;;0.50;;
71667;SDS011;59504;54.806;9.640;2022-11-20T05:16:21;2.00;;;0.80;;
71667;SDS011;59504;54.806;9.640;2022-11-20T05:18:43;1.15;;;0.68;;
71667;SDS011;59504;54.806;9.640;2022-11-20T05:21:04;1.00;;;0.60;;
71667;SDS011;59504;54.806;9.640;2022-11-20T05:23:25;1.20;;;0.68;;
71667;SDS011;59504;54.806;9.640;2022-11-20T05:25:46;2.53;;;0.77;;
71667;SDS011;59504;54.806;9.640;2022-11-20T05:28:07;1.20;;;0.75;;
71667;SDS011;59504;54.806;9.640;2022-11-20T05:30:27;1.55;;;0.73;;
71667;SDS011;59504;54.806;9.640;2022-11-20T05:32:48;1.67;;;0.82;;
71667;SDS011;59504;54.806;9.640;2022-11-20T05:35:09;1.58;;;0.70;;
71667;SDS011;59504;54.806;9.640;2022-11-20T05:37:29;1.52;;;0.70;;
71667;SDS011;59504;54.806;9.640;2022-11-20T05:39:50;1.73;;;1.08;;
71667;SDS011;59504;54.806;9.640;2022-11-20T05:42:11;0.90;;;0.70;;
71667;SDS011;59504;54.806;9.640;2022-11-20T05:44:49;1.15;;;0.50;;
71667;SDS011;59504;54.806;9.640;2022-11-20T05:47:08;0.80;;;0.70;;
71667;SDS011;59504;54.806;9.640;2022-11-20T05:49:27;1.65;;;1.00;;
71667;SDS011;59504;54.806;9.640;2022-11-20T05:51:46;0.85;;;0.70;;
71667;SDS011;59504;54.806;9.640;2022-11-20T05:54:05;1.65;;;1.00;;
71667;SDS011;59504;54.806;9.640;2022-11-20T05:56:24;1.48;;;1.00;;
71667;SDS011;59504;54.806;9.640;2022-11-20T05:58:44;4.00;;;0.90;;
71667;SDS011;59504;54.806;9.640;2022-11-20T06:01:05;2.10;;;1.08;;
71667;SDS011;59504;54.806;9.640;2022-11-20T06:03:26;1.33;;;0.98;;
71667;SDS011;59504;54.806;9.640;2022-11-20T06:05:45;1.30;;;1.02;;
71667;SDS011;59504;54.806;9.640;2022-11-20T06:08:04;1.42;;;1.00;;
71667;SDS011;59504;54.806;9.640;2022-11-20T06:10:23;1.33;;;0.98;;
71667;SDS011;59504;54.806;9.640;2022-11-20T06:12:43;1.10;;;0.90;;
71667;SDS011;59504;54.806;9.640;2022-11-20T06:15:02;2.33;;;1.10;;
71667;SDS011;59504;54.806;9.640;2022-11-20T06:17:22;1.75;;;1.23;;
71667;SDS011;59504;54.806;9.640;2022-11-20T06:19:41;2.45;;;1.25;;
71667;SDS011;59504;54.806;9.640;2022-11-20T06:22:00;1.75;;;1.10;;
71667;SDS011;59504;54.806;9.640;2022-11-20T06:24:20;2.78;;;1.27;;
71667;SDS011;59504;54.806;9.640;2022-11-20T06:26:39;3.35;;;1.10;;
71667;SDS011;59504;54.806;9.640;2022-11-20T06:28:58;1.67;;;0.90;;
71667;SDS011;59504;54.806;9.640;2022-11-20T06:31:18;3.53;;;1.20;;
71667;SDS011;59504;54.806;9.640;2022-11-20T06:33:41;1.77;;;1.02;;
71667;SDS011;59504;54.806;9.640;2022-11-20T06:36:01;1.42;;;1.02;;
71667;SDS011;59504;54.806;9.640;2022-11-20T06:38:20;2.08;;;0.93;;
71667;SDS011;59504;54.806;9.640;2022-11-20T06:40:40;2.55;;;1.10;;
71667;SDS011;59504;54.806;9.640;2022-11-20T06:43:00;2.00;;;1.20;;
71667;SDS011;59504;54.806;9.640;2022-11-20T06:45:19;2.53;;;1.10;;
71667;SDS011;59504;54.806;9.640;2022-11-20T06:47:39;2.17;;;1.20;;
71667;SDS011;59504;54.806;9.640;2022-11-20T06:49:58;1.70;;;1.30;;
71667;SDS011;59504;54.806;9.640;2022-11-20T06:52:17;2.50;;;1.00;;
71667;SDS011;59504;54.806;9.640;2022-11-20T06:54:36;2.35;;;1.08;;
71667;SDS011;59504;54.806;9.640;2022-11-20T06:56:55;2.65;;;1.38;;
71667;SDS011;59504;54.806;9.640;2022-11-20T06:59:14;2.38;;;1.10;;
71667;SDS011;59504;54.806;9.640;2022-11-20T07:01:33;2.55;;;1.42;;
71667;SDS011;59504;54.806;9.640;2022-11-20T07:03:53;2.60;;;1.30;;
71667;SDS011;59504;54.806;9.640;2022-11-20T07:06:12;2.83;;;1.30;;
71667;SDS011;59504;54.806;9.640;2022-11-20T07:08:31;2.47;;;1.15;;
71667;SDS011;59504;54.806;9.640;2022-11-20T07:10:52;2.85;;;1.35;;
71667;SDS011;59504;54.806;9.640;2022-11-20T07:13:12;5.85;;;2.55;;
71667;SDS011;59504;54.806;9.640;2022-11-20T07:15:31;4.57;;;1.92;;
71667;SDS011;59504;54.806;9.640;2022-11-20T07:17:50;3.13;;;1.55;;
71667;SDS011;59504;54.806;9.640;2022-11-20T07:20:09;3.20;;;1.30;;
71667;SDS011;59504;54.806;9.640;2022-11-20T07:22:28;3.22;;;1.35;;
71667;SDS011;59504;54.806;9.640;2022-11-20T07:24:48;1.38;;;1.20;;
71667;SDS011;59504;54.806;9.640;2022-11-20T07:27:07;2.20;;;1.50;;
71667;SDS011;59504;54.806;9.640;2022-11-20T07:29:26;6.47;;;2.50;;
71667;SDS011;59504;54.806;9.640;2022-11-20T07:31:45;5.47;;;2.67;;
71667;SDS011;59504;54.806;9.640;2022-11-20T07:34:04;3.53;;;1.80;;
71667;SDS011;59504;54.806;9.640;2022-11-20T07:36:23;2.70;;;1.50;;
71667;SDS011;59504;54.806;9.640;2022-11-20T07:38:42;2.22;;;1.50;;
71667;SDS011;59504;54.806;9.640;2022-11-20T07:41:01;3.55;;;1.80;;
71667;SDS011;59504;54.806;9.640;2022-11-20T07:43:20;3.55;;;1.75;;
71667;SDS011;59504;54.806;9.640;2022-11-20T07:45:39;3.03;;;1.58;;
71667;SDS011;59504;54.806;9.640;2022-11-20T07:47:58;5.53;;;1.50;;
71667;SDS011;59504;54.806;9.640;2022-11-20T07:50:18;3.63;;;1.50;;
71667;SDS011;59504;54.806;9.640;2022-11-20T07:52:38;2.58;;;1.33;;
71667;SDS011;59504;54.806;9.640;2022-11-20T07:54:57;5.63;;;1.67;;
71667;SDS011;59504;54.806;9.640;2022-11-20T07:57:16;2.97;;;1.50;;
71667;SDS011;59504;54.806;9.640;2022-11-20T07:59:35;2.78;;;1.63;;
71667;SDS011;59504;54.806;9.640;2022-11-20T08:01:54;2.42;;;1.60;;
71667;SDS011;59504;54.806;9.640;2022-11-20T08:04:14;3.45;;;1.58;;
71667;SDS011;59504;54.806;9.640;2022-11-20T08:06:35;3.20;;;1.75;;
71667;SDS011;59504;54.806;9.640;2022-11-20T08:08:54;2.40;;;1.50;;
71667;SDS011;59504;54.806;9.640;2022-11-20T08:11:13;2.08;;;1.20;;
71667;SDS011;59504;54.806;9.640;2022-11-20T08:13:51;2.85;;;1.35;;
71667;SDS011;59504;54.806;9.640;2022-11-20T08:16:29;3.63;;;1.58;;
71667;SDS011;59504;54.806;9.640;2022-11-20T08:18:48;6.03;;;2.67;;
71667;SDS011;59504;54.806;9.640;2022-11-20T08:21:08;2.67;;;1.42;;
71667;SDS011;59504;54.806;9.640;2022-11-20T08:23:26;4.05;;;1.40;;
71667;SDS011;59504;54.806;9.640;2022-11-20T08:25:48;2.40;;;1.33;;
71667;SDS011;59504;54.806;9.640;2022-11-20T08:28:09;5.45;;;1.50;;
71667;SDS011;59504;54.806;9.640;2022-11-20T08:30:28;3.97;;;1.75;;
71667;SDS011;59504;54.806;9.640;2022-11-20T08:32:48;1.77;;;1.42;;
71667;SDS011;59504;54.806;9.640;2022-11-20T08:35:07;3.50;;;1.60;;
71667;SDS011;59504;54.806;9.640;2022-11-20T08:37:26;4.65;;;1.17;;
71667;SDS011;59504;54.806;9.640;2022-11-20T08:39:45;2.22;;;1.52;;
71667;SDS011;59504;54.806;9.640;2022-11-20T08:42:08;2.28;;;1.25;;
71667;SDS011;59504;54.806;9.640;2022-11-20T08:44:28;2.78;;;1.20;;
71667;SDS011;59504;54.806;9.640;2022-11-20T08:46:47;4.32;;;1.63;;
71667;SDS011;59504;54.806;9.640;2022-11-20T08:49:08;1.58;;;1.00;;
71667;SDS011;59504;54.806;9.640;2022-11-20T08:51:28;3.45;;;1.40;;
71667;SDS011;59504;54.806;9.640;2022-11-20T08:53:47;2.35;;;1.60;;
71667;SDS011;59504;54.806;9.640;2022-11-20T08:56:07;5.38;;;1.38;;
71667;SDS011;59504;54.806;9.640;2022-11-20T08:58:28;3.53;;;1.48;;
71667;SDS011;59504;54.806;9.640;2022-11-20T09:00:47;6.90;;;2.95;;
71667;SDS011;59504;54.806;9.640;2022-11-20T09:03:06;5.25;;;2.20;;
71667;SDS011;59504;54.806;9.640;2022-11-20T09:05:25;9.65;;;2.90;;
71667;SDS011;59504;54.806;9.640;2022-11-20T09:07:45;2.13;;;1.30;;
71667;SDS011;59504;54.806;9.640;2022-11-20T09:10:04;2.85;;;1.65;;
71667;SDS011;59504;54.806;9.640;2022-11-20T09:12:23;2.90;;;1.65;;
71667;SDS011;59504;54.806;9.640;2022-11-20T09:14:42;3.05;;;1.85;;
71667;SDS011;59504;54.806;9.640;2022-11-20T09:17:01;13.38;;;5.65;;
71667;SDS011;59504;54.806;9.640;2022-11-20T09:19:20;4.30;;;1.88;;
71667;SDS011;59504;54.806;9.640;2022-11-20T09:21:39;6.40;;;2.65;;
71667;SDS011;59504;54.806;9.640;2022-11-20T09:23:59;7.22;;;3.20;;
71667;SDS011;59504;54.806;9.640;2022-11-20T09:26:18;12.65;;;4.38;;
71667;SDS011;59504;54.806;9.640;2022-11-20T09:28:38;12.95;;;4.85;;
71667;SDS011;59504;54.806;9.640;2022-11-20T09:30:58;9.55;;;4.50;;
71667;SDS011;59504;54.806;9.640;2022-11-20T09:33:18;9.82;;;4.07;;
71667;SDS011;59504;54.806;9.640;2022-11-20T09:35:37;9.15;;;4.55;;
71667;SDS011;59504;54.806;9.640;2022-11-20T09:37:56;3.13;;;1.95;;
71667;SDS011;59504;54.806;9.640;2022-11-20T09:42:44;3.78;;;1.10;;
71667;SDS011;59504;54.806;9.640;2022-11-20T09:45:23;3.17;;;1.90;;
71667;SDS011;59504;54.806;9.640;2022-11-20T09:48:04;5.13;;;2.83;;
71667;SDS011;59504;54.806;9.640;2022-11-20T09:55:34;2.88;;;1.67;;
71667;SDS011;59504;54.806;9.640;2022-11-20T09:57:55;4.20;;;2.28;;
71667;SDS011;59504;54.806;9.640;2022-11-20T10:00:16;3.20;;;1.60;;
71667;SDS011;59504;54.806;9.640;2022-11-20T10:02:44;2.63;;;1.50;;
71667;SDS011;59504;54.806;9.640;2022-11-20T10:05:18;2.53;;;1.38;;
71667;SDS011;59504;54.806;9.640;2022-11-20T10:07:55;7.40;;;1.60;;
71667;SDS011;59504;54.806;9.640;2022-11-20T10:18:46;3.30;;;1.33;;
71667;SDS011;59504;54.806;9.640;2022-11-20T10:29:42;4.10;;;1.65;;
71667;SDS011;59504;54.806;9.640;2022-11-20T10:31:44;6.45;;;2.00;;
71667;SDS011;59504;54.806;9.640;2022-11-20T10:34:15;3.58;;;2.08;;
71667;SDS011;59504;54.806;9.640;2022-11-20T10:36:33;2.38;;;1.42;;
71667;SDS011;59504;54.806;9.640;2022-11-20T10:38:47;3.85;;;2.03;;
71667;SDS011;59504;54.806;9.640;2022-11-20T10:40:59;3.78;;;1.77;;
71667;SDS011;59504;54.806;9.640;2022-11-20T10:43:25;2.53;;;1.52;;
71667;SDS011;59504;54.806;9.640;2022-11-20T10:45:36;5.13;;;1.35;;
71667;SDS011;59504;54.806;9.640;2022-11-20T10:47:45;6.65;;;1.77;;
71667;SDS011;59504;54.806;9.640;2022-11-20T10:49:51;3.85;;;1.63;;
71667;SDS011;59504;54.806;9.640;2022-11-20T10:56:43;4.10;;;2.08;;
71667;SDS011;59504;54.806;9.640;2022-11-20T11:01:23;1.90;;;1.20;;
71667;SDS011;59504;54.806;9.640;2022-11-20T11:03:26;2.17;;;1.42;;
71667;SDS011;59504;54.806;9.640;2022-11-20T11:07:41;3.22;;;1.33;;
71667;SDS011;59504;54.806;9.640;2022-11-20T11:09:43;4.28;;;1.40;;
71667;SDS011;59504;54.806;9.640;2022-11-20T11:11:47;2.47;;;1.27;;
71667;SDS011;59504;54.806;9.640;2022-11-20T11:13:48;2.35;;;1.13;;
71667;SDS011;59504;54.806;9.640;2022-11-20T11:15:48;1.58;;;1.08;;
71667;SDS011;59504;54.806;9.640;2022-11-20T11:17:49;2.75;;;1.05;;
71667;SDS011;59504;54.806;9.640;2022-11-20T11:20:32;2.47;;;1.25;;
71667;SDS011;59504;54.806;9.640;2022-11-20T11:22:17;1.42;;;1.10;;
71667;SDS011;59504;54.806;9.640;2022-11-20T11:24:22;1.83;;;1.08;;
71667;SDS011;59504;54.806;9.640;2022-11-20T11:26:24;4.93;;;1.38;;
71667;SDS011;59504;54.806;9.640;2022-11-20T11:28:26;3.38;;;1.42;;
71667;SDS011;59504;54.806;9.640;2022-11-20T11:30:28;2.75;;;1.58;;
71667;SDS011;59504;54.806;9.640;2022-11-20T11:32:30;2.65;;;1.15;;
71667;SDS011;59504;54.806;9.640;2022-11-20T11:34:31;2.25;;;1.20;;
71667;SDS011;59504;54.806;9.640;2022-11-20T11:36:32;2.08;;;1.02;;
71667;SDS011;59504;54.806;9.640;2022-11-20T11:40:39;2.03;;;1.42;;
71667;SDS011;59504;54.806;9.640;2022-11-20T11:42:44;2.25;;;1.20;;
71667;SDS011;59504;54.806;9.640;2022-11-20T11:44:58;4.00;;;1.70;;
71667;SDS011;59504;54.806;9.640;2022-11-20T11:47:11;2.97;;;1.60;;
71667;SDS011;59504;54.806;9.640;2022-11-20T11:49:45;2.58;;;1.40;;
71667;SDS011;59504;54.806;9.640;2022-11-20T11:52:41;3.55;;;1.30;;
71667;SDS011;59504;54.806;9.640;2022-11-20T11:54:57;2.53;;;1.38;;
71667;SDS011;59504;54.806;9.640;2022-11-20T12:00:03;3.60;;;1.92;;
71667;SDS011;59504;54.806;9.640;2022-11-20T12:05:12;2.83;;;1.60;;
71667;SDS011;59504;54.806;9.640;2022-11-20T12:07:42;3.17;;;1.48;;
71667;SDS011;59504;54.806;9.640;2022-11-20T12:10:19;3.22;;;1.58;;
71667;SDS011;59504;54.806;9.640;2022-11-20T12:12:46;1.73;;;0.93;;
71667;SDS011;59504;54.806;9.640;2022-11-20T12:15:12;3.20;;;1.23;;
71667;SDS011;59504;54.806;9.640;2022-11-20T12:17:25;2.30;;;1.20;;
71667;SDS011;59504;54.806;9.640;2022-11-20T12:19:46;3.63;;;1.40;;
71667;SDS011;59504;54.806;9.640;2022-11-20T12:22:17;2.88;;;1.23;;
71667;SDS011;59504;54.806;9.640;2022-11-20T12:24:58;6.50;;;1.10;;
71667;SDS011;59504;54.806;9.640;2022-11-20T12:30:09;5.63;;;1.13;;
71667;SDS011;59504;54.806;9.640;2022-11-20T12:43:20;3.63;;;2.03;;
71667;SDS011;59504;54.806;9.640;2022-11-20T12:46:23;1.70;;;1.05;;
71667;SDS011;59504;54.806;9.640;2022-11-20T12:49:03;1.15;;;0.85;;
71667;SDS011;59504;54.806;9.640;2022-11-20T12:51:41;5.30;;;1.08;;
71667;SDS011;59504;54.806;9.640;2022-11-20T12:56:54;3.50;;;0.93;;
71667;SDS011;59504;54.806;9.640;2022-11-20T13:02:51;2.58;;;1.00;;
71667;SDS011;59504;54.806;9.640;2022-11-20T13:06:58;3.83;;;1.10;;
71667;SDS011;59504;54.806;9.640;2022-11-20T13:09:01;1.77;;;1.00;;
71667;SDS011;59504;54.806;9.640;2022-11-20T13:11:21;3.53;;;1.15;;
71667;SDS011;59504;54.806;9.640;2022-11-20T13:14:37;3.30;;;1.30;;
71667;SDS011;59504;54.806;9.640;2022-11-20T13:16:43;1.42;;;1.02;;
71667;SDS011;59504;54.806;9.640;2022-11-20T13:18:52;1.88;;;1.00;;
71667;SDS011;59504;54.806;9.640;2022-11-20T13:20:53;2.30;;;1.20;;
71667;SDS011;59504;54.806;9.640;2022-11-20T13:22:54;1.90;;;0.90;;
71667;SDS011;59504;54.806;9.640;2022-11-20T13:24:57;1.45;;;0.95;;
71667;SDS011;59504;54.806;9.640;2022-11-20T13:29:17;1.58;;;0.75;;
71667;SDS011;59504;54.806;9.640;2022-11-20T13:31:28;1.98;;;0.98;;
71667;SDS011;59504;54.806;9.640;2022-11-20T13:33:32;1.50;;;1.08;;
71667;SDS011;59504;54.806;9.640;2022-11-20T13:35:41;1.30;;;0.80;;
71667;SDS011;59504;54.806;9.640;2022-11-20T13:37:42;1.58;;;0.70;;
71667;SDS011;59504;54.806;9.640;2022-11-20T13:39:43;1.90;;;0.90;;
71667;SDS011;59504;54.806;9.640;2022-11-20T13:41:53;2.17;;;0.80;;
71667;SDS011;59504;54.806;9.640;2022-11-20T13:43:58;3.05;;;1.20;;
71667;SDS011;59504;54.806;9.640;2022-11-20T13:46:07;1.67;;;0.70;;
71667;SDS011;59504;54.806;9.640;2022-11-20T13:48:19;2.35;;;0.95;;
71667;SDS011;59504;54.806;9.640;2022-11-20T13:50:28;1.17;;;0.70;;
71667;SDS011;59504;54.806;9.640;2022-11-20T13:54:55;0.93;;;0.60;;
71667;SDS011;59504;54.806;9.640;2022-11-20T13:59:37;1.75;;;0.75;;
71667;SDS011;59504;54.806;9.640;2022-11-20T14:01:53;1.45;;;0.82;;
71667;SDS011;59504;54.806;9.640;2022-11-20T14:03:54;3.15;;;1.17;;
71667;SDS011;59504;54.806;9.640;2022-11-20T14:05:56;2.63;;;0.90;;
71667;SDS011;59504;54.806;9.640;2022-11-20T14:08:03;1.23;;;0.57;;
71667;SDS011;59504;54.806;9.640;2022-11-20T14:10:05;1.05;;;0.80;;
71667;SDS011;59504;54.806;9.640;2022-11-20T14:12:14;3.63;;;1.10;;
71667;SDS011;59504;54.806;9.640;2022-11-20T14:14:19;1.58;;;0.77;;
71667;SDS011;59504;54.806;9.640;2022-11-20T14:16:22;1.05;;;0.75;;
71667;SDS011;59504;54.806;9.640;2022-11-20T14:18:24;2.05;;;0.70;;
71667;SDS011;59504;54.806;9.640;2022-11-20T14:20:27;2.00;;;0.82;;
71667;SDS011;59504;54.806;9.640;2022-11-20T14:22:31;1.83;;;0.80;;
71667;SDS011;59504;54.806;9.640;2022-11-20T14:24:32;2.35;;;1.13;;
71667;SDS011;59504;54.806;9.640;2022-11-20T14:26:33;1.45;;;0.70;;
71667;SDS011;59504;54.806;9.640;2022-11-20T14:28:34;4.72;;;0.90;;
71667;SDS011;59504;54.806;9.640;2022-11-20T14:30:44;2.50;;;0.90;;
71667;SDS011;59504;54.806;9.640;2022-11-20T14:32:47;1.58;;;0.70;;
71667;SDS011;59504;54.806;9.640;2022-11-20T14:34:49;1.27;;;0.80;;
71667;SDS011;59504;54.806;9.640;2022-11-20T14:36:52;2.55;;;1.00;;
71667;SDS011;59504;54.806;9.640;2022-11-20T14:38:59;1.42;;;0.80;;
71667;SDS011;59504;54.806;9.640;2022-11-20T14:41:15;1.35;;;0.52;;
71667;SDS011;59504;54.806;9.640;2022-11-20T14:45:22;2.50;;;0.88;;
71667;SDS011;59504;54.806;9.640;2022-11-20T14:47:25;3.42;;;1.00;;
71667;SDS011;59504;54.806;9.640;2022-11-20T14:49:28;1.98;;;0.82;;
71667;SDS011;59504;54.806;9.640;2022-11-20T14:51:37;1.80;;;0.80;;
71667;SDS011;59504;54.806;9.640;2022-11-20T14:53:42;1.85;;;0.90;;
71667;SDS011;59504;54.806;9.640;2022-11-20T14:55:43;3.75;;;1.08;;
71667;SDS011;59504;54.806;9.640;2022-11-20T14:57:43;4.00;;;1.17;;
71667;SDS011;59504;54.806;9.640;2022-11-20T15:02:11;1.45;;;0.70;;
71667;SDS011;59504;54.806;9.640;2022-11-20T15:04:13;1.63;;;1.05;;
71667;SDS011;59504;54.806;9.640;2022-11-20T15:06:13;3.67;;;1.00;;